| time (UTC) | temp C | wind direction | speed KPH | gust KPH | rain 1hr cm | rain 24hr cm | rain mn cm | humidity % | barometer mb |
| 20260507092927 | 15 | 122 | 3.2 | 12.9 | 0.00 | 0.00 | 0.00 | 51 | 1013.9 |
| 20260507091927 | 14 | 122 | 3.2 | 12.9 | 0.00 | 0.00 | 0.00 | 50 | 1013.9 |
| 20260507090927 | 14 | 118 | 4.8 | 12.9 | 0.00 | 0.00 | 0.00 | 51 | 1013.9 |
| 20260507085926 | 13 | 114 | 4.8 | 12.9 | 0.00 | 0.00 | 0.00 | 53 | 1013.8 |
| 20260507084925 | 13 | 114 | 4.8 | 12.9 | 0.00 | 0.00 | 0.00 | 54 | 1013.8 |
| 20260507083924 | 13 | 110 | 4.8 | 12.9 | 0.00 | 0.00 | 0.00 | 56 | 1013.8 |
| 20260507082923 | 12 | 106 | 6.4 | 12.9 | 0.00 | 0.00 | 0.00 | 56 | 1013.7 |
| 20260507081922 | 13 | 106 | 6.4 | 12.9 | 0.00 | 0.00 | 0.00 | 55 | 1013.7 |
| 20260507080921 | 13 | 102 | 6.4 | 14.5 | 0.00 | 0.00 | 0.00 | 55 | 1013.7 |
| 20260507075920 | 13 | 96 | 6.4 | 14.5 | 0.00 | 0.00 | 0.00 | 55 | 1013.7 |
| 20260507074919 | 12 | 96 | 6.4 | 14.5 | 0.00 | 0.00 | 0.00 | 57 | 1013.7 |
| 20260507073918 | 12 | 93 | 6.4 | 14.5 | 0.00 | 0.00 | 0.00 | 57 | 1013.7 |
| 20260507072917 | 12 | 91 | 6.4 | 14.5 | 0.00 | 0.00 | 0.00 | 60 | 1013.5 |
| 20260507071915 | 11 | 91 | 6.4 | 14.5 | 0.00 | 0.00 | 0.00 | 63 | 1013.5 |
| 20260507070914 | 10 | 88 | 6.4 | 14.5 | 0.00 | 0.00 | 0.00 | 66 | 1013.4 |
| 20260507065914 | 10 | 83 | 6.4 | 12.9 | 0.00 | 0.00 | 0.00 | 69 | 1013.5 |
| 20260507064913 | 10 | 83 | 6.4 | 12.9 | 0.00 | 0.00 | 0.00 | 72 | 1013.5 |
| 20260507063912 | 9 | 78 | 4.8 | 11.3 | 0.00 | 0.00 | 0.00 | 73 | 1013.5 |
| 20260507062911 | 9 | 81 | 4.8 | 11.3 | 0.00 | 0.00 | 0.00 | 73 | 1013.5 |
| 20260507061911 | 8 | 81 | 4.8 | 11.3 | 0.00 | 0.00 | 0.00 | 75 | 1013.4 |
| 20260507060909 | 8 | 76 | 4.8 | 9.7 | 0.00 | 0.00 | 0.00 | 75 | 1013.3 |
| 20260507055909 | 8 | 64 | 3.2 | 8.0 | 0.00 | 0.00 | 0.00 | 76 | 1013.2 |
| 20260507054908 | 8 | 64 | 3.2 | 8.0 | 0.00 | 0.00 | 0.00 | 77 | 1013.2 |
| 20260507053907 | 8 | 52 | 3.2 | 6.4 | 0.00 | 0.00 | 0.00 | 78 | 1013.1 |
| 20260507052906 | 8 | 40 | 3.2 | 8.0 | 0.00 | 0.00 | 0.00 | 79 | 1013.1 |
| 20260507051905 | 7 | 40 | 3.2 | 8.0 | 0.00 | 0.00 | 0.00 | 80 | 1013.1 |
| 20260507050903 | 7 | 50 | 3.2 | 6.4 | 0.00 | 0.00 | 0.00 | 80 | 1013.0 |
| 20260507045903 | 7 | 53 | 3.2 | 6.4 | 0.00 | 0.00 | 0.00 | 81 | 1013.1 |
| 20260507044902 | 7 | 53 | 3.2 | 6.4 | 0.00 | 0.00 | 0.00 | 81 | 1013.0 |
| 20260507043902 | 7 | 56 | 1.6 | 6.4 | 0.00 | 0.00 | 0.00 | 81 | 1012.9 |
| 20260507042901 | 7 | 59 | 1.6 | 6.4 | 0.00 | 0.00 | 0.00 | 81 | 1012.8 |
| 20260507041900 | 7 | 59 | 1.6 | 6.4 | 0.00 | 0.00 | 0.00 | 81 | 1012.8 |
| 20260507040859 | 7 | 62 | 3.2 | 6.4 | 0.00 | 0.00 | 0.00 | 81 | 1012.8 |
| 20260507035858 | 7 | 61 | 3.2 | 8.0 | 0.00 | 0.00 | 0.00 | 80 | 1012.7 |
| 20260507034857 | 7 | 61 | 3.2 | 8.0 | 0.00 | 0.00 | 0.00 | 80 | 1012.7 |
| 20260507033857 | 8 | 41 | 1.6 | 4.8 | 0.00 | 0.00 | 0.00 | 79 | 1012.7 |
| 20260507032856 | 7 | 32 | 1.6 | 4.8 | 0.00 | 0.00 | 0.00 | 80 | 1012.6 |
| 20260507031855 | 8 | 32 | 1.6 | 4.8 | 0.00 | 0.00 | 0.00 | 80 | 1012.6 |
| 20260507030854 | 8 | 22 | 3.2 | 6.4 | 0.00 | 0.00 | 0.00 | 80 | 1012.6 |
| 20260507025853 | 8 | 34 | 4.8 | 9.7 | 0.00 | 0.00 | 0.00 | 80 | 1012.6 |
| 20260507024853 | 8 | 42 | 4.8 | 9.7 | 0.00 | 0.00 | 0.00 | 80 | 1012.6 |
| 20260507023852 | 8 | 50 | 4.8 | 9.7 | 0.00 | 0.00 | 0.00 | 80 | 1012.5 |
| 20260507022851 | 8 | 58 | 6.4 | 11.3 | 0.00 | 0.00 | 0.00 | 81 | 1012.5 |
| 20260507021850 | 8 | 58 | 6.4 | 11.3 | 0.00 | 0.00 | 0.00 | 82 | 1012.5 |
| 20260507020849 | 8 | 66 | 6.4 | 12.9 | 0.00 | 0.00 | 0.00 | 81 | 1012.6 |
| 20260507015848 | 8 | 64 | 6.4 | 12.9 | 0.00 | 0.00 | 0.00 | 80 | 1012.4 |
| 20260507014847 | 8 | 64 | 6.4 | 12.9 | 0.00 | 0.00 | 0.00 | 80 | 1012.4 |
| 20260507013846 | 8 | 62 | 6.4 | 12.9 | 0.00 | 0.00 | 0.00 | 80 | 1012.4 |
| 20260507012846 | 8 | 60 | 8.0 | 14.5 | 0.00 | 0.00 | 0.00 | 80 | 1012.3 |
| 20260507011845 | 8 | 60 | 8.0 | 14.5 | 0.00 | 0.00 | 0.00 | 80 | 1012.3 |
| 20260507010844 | 8 | 58 | 8.0 | 14.5 | 0.00 | 0.00 | 0.00 | 80 | 1012.4 |
| 20260507005843 | 8 | 52 | 8.0 | 14.5 | 0.00 | 0.00 | 0.00 | 79 | 1012.3 |
| 20260507004842 | 8 | 52 | 6.4 | 14.5 | 0.00 | 0.00 | 0.00 | 80 | 1012.4 |
| 20260507003841 | 8 | 46 | 8.0 | 14.5 | 0.00 | 0.00 | 0.00 | 80 | 1012.4 |
| 20260507002840 | 8 | 57 | 8.0 | 14.5 | 0.00 | 0.00 | 0.00 | 79 | 1012.3 |
| 20260507001839 | 8 | 57 | 8.0 | 14.5 | 0.00 | 0.00 | 0.00 | 80 | 1012.4 |
| 20260507000839 | 8 | 58 | 8.0 | 14.5 | 0.00 | 0.00 | 0.00 | 80 | 1012.4 |
| 20260506235838 | 8 | 63 | 8.0 | 14.5 | 0.00 | 0.00 | 0.00 | 80 | 1012.4 |
| 20260506234837 | 8 | 63 | 8.0 | 14.5 | 0.00 | 0.00 | 0.00 | 81 | 1012.4 |
| 20260506233835 | 8 | 67 | 8.0 | 14.5 | 0.00 | 0.00 | 0.00 | 81 | 1012.4 |
| 20260506232835 | 8 | 72 | 8.0 | 16.1 | 0.00 | 0.00 | 0.00 | 81 | 1012.4 |
| 20260506231835 | 8 | 67 | 9.7 | 17.7 | 0.00 | 0.00 | 0.00 | 81 | 1012.4 |
| 20260506230834 | 8 | 68 | 9.7 | 19.3 | 0.00 | 0.00 | 0.00 | 81 | 1012.3 |
| 20260506225834 | 8 | 70 | 11.3 | 20.9 | 0.00 | 0.00 | 0.00 | 81 | 1012.3 |
| 20260506224833 | 8 | 66 | 9.7 | 17.7 | 0.00 | 0.00 | 0.00 | 81 | 1012.3 |
| 20260506223832 | 8 | 69 | 9.7 | 17.7 | 0.00 | 0.00 | 0.00 | 81 | 1012.3 |
| 20260506222832 | 8 | 73 | 9.7 | 19.3 | 0.00 | 0.00 | 0.00 | 81 | 1012.3 |
| 20260506221831 | 8 | 73 | 9.7 | 19.3 | 0.00 | 0.00 | 0.00 | 82 | 1012.2 |
| 20260506220830 | 8 | 76 | 11.3 | 19.3 | 0.00 | 0.00 | 0.00 | 84 | 1012.0 |
| 20260506215830 | 8 | 74 | 11.3 | 19.3 | 0.00 | 0.00 | 0.00 | 85 | 1012.0 |
| 20260506214829 | 9 | 74 | 11.3 | 19.3 | 0.00 | 0.00 | 0.00 | 84 | 1012.0 |
| 20260506213829 | 9 | 71 | 9.7 | 19.3 | 0.00 | 0.00 | 0.00 | 84 | 1012.1 |
| 20260506212827 | 9 | 73 | 9.7 | 19.3 | 0.00 | 0.00 | 0.00 | 83 | 1012.0 |
| 20260506211826 | 9 | 73 | 9.7 | 19.3 | 0.00 | 0.00 | 0.00 | 81 | 1012.0 |
| 20260506210826 | 10 | 78 | 9.7 | 19.3 | 0.00 | 0.00 | 0.00 | 79 | 1011.8 |
| 20260506205826 | 10 | 51 | 9.7 | 19.3 | 0.00 | 0.00 | 0.00 | 77 | 1011.7 |
| 20260506204824 | 10 | 51 | 9.7 | 19.3 | 0.00 | 0.00 | 0.00 | 75 | 1011.6 |
| 20260506203824 | 10 | 23 | 9.7 | 17.7 | 0.00 | 0.00 | 0.00 | 76 | 1011.6 |
| 20260506202823 | 10 | 356 | 0.0 | 3.2 | 0.00 | 0.00 | 0.00 | 77 | 1011.5 |
| 20260506201823 | 10 | 10 | 0.0 | 3.2 | 0.00 | 0.00 | 0.00 | 77 | 1011.6 |
| 20260506200821 | 10 | 344 | 0.0 | 1.6 | 0.00 | 0.00 | 0.00 | 76 | 1011.5 |
| 20260506195821 | 10 | 336 | 0.0 | 3.2 | 0.00 | 0.00 | 0.00 | 76 | 1011.4 |
| 20260506194820 | 10 | 336 | 0.0 | 3.2 | 0.00 | 0.00 | 0.00 | 76 | 1011.4 |
| 20260506193819 | 10 | 328 | 3.2 | 8.0 | 0.00 | 0.00 | 0.00 | 76 | 1011.2 |
| 20260506192818 | 10 | 320 | 6.4 | 12.9 | 0.00 | 0.00 | 0.00 | 76 | 1011.2 |
| 20260506191818 | 10 | 320 | 6.4 | 12.9 | 0.00 | 0.00 | 0.00 | 75 | 1011.0 |
| 20260506190816 | 11 | 312 | 9.7 | 17.7 | 0.00 | 0.00 | 0.00 | 73 | 1011.0 |
| 20260506185816 | 11 | 316 | 11.3 | 19.3 | 0.00 | 0.00 | 0.00 | 71 | 1010.9 |
| 20260506184815 | 11 | 316 | 11.3 | 19.3 | 0.00 | 0.00 | 0.00 | 70 | 1010.7 |
| 20260506183813 | 11 | 319 | 11.3 | 20.9 | 0.00 | 0.00 | 0.00 | 69 | 1010.7 |
| 20260506182813 | 11 | 323 | 11.3 | 22.5 | 0.00 | 0.00 | 0.00 | 69 | 1010.7 |
| 20260506181812 | 11 | 323 | 11.3 | 22.5 | 0.00 | 0.00 | 0.00 | 69 | 1010.5 |
| 20260506180811 | 11 | 326 | 11.3 | 22.5 | 0.00 | 0.00 | 0.00 | 68 | 1010.4 |
| 20260506175811 | 11 | 330 | 12.9 | 24.1 | 0.00 | 0.00 | 0.00 | 68 | 1010.3 |
| 20260506174809 | 11 | 330 | 12.9 | 24.1 | 0.00 | 0.00 | 0.00 | 67 | 1010.2 |
| 20260506173809 | 12 | 333 | 14.5 | 27.4 | 0.00 | 0.00 | 0.00 | 67 | 1010.1 |
| 20260506172808 | 11 | 331 | 14.5 | 27.4 | 0.00 | 0.00 | 0.00 | 69 | 1010.0 |
| 20260506171807 | 11 | 331 | 14.5 | 27.4 | 0.00 | 0.00 | 0.00 | 68 | 1010.1 |
| 20260506170807 | 12 | 324 | 14.5 | 25.7 | 0.00 | 0.00 | 0.00 | 65 | 1010.1 |
| 20260506165806 | 12 | 328 | 14.5 | 27.4 | 0.00 | 0.00 | 0.00 | 61 | 1010.0 |
| 20260506164805 | 12 | 328 | 14.5 | 27.4 | 0.00 | 0.00 | 0.00 | 59 | 1010.0 |
| 20260506163805 | 12 | 332 | 14.5 | 29.0 | 0.00 | 0.00 | 0.00 | 59 | 1010.0 |
| 20260506162805 | 12 | 334 | 14.5 | 27.4 | 0.00 | 0.00 | 0.00 | 59 | 1010.0 |
| 20260506161803 | 12 | 334 | 14.5 | 27.4 | 0.00 | 0.00 | 0.00 | 63 | 1010.1 |
| 20260506160803 | 12 | 338 | 14.5 | 27.4 | 0.00 | 0.00 | 0.00 | 62 | 1009.9 |
| 20260506155803 | 12 | 344 | 14.5 | 29.0 | 0.00 | 0.00 | 0.00 | 61 | 1010.0 |
| 20260506154802 | 12 | 344 | 14.5 | 29.0 | 0.00 | 0.00 | 0.00 | 60 | 1010.0 |
| 20260506153801 | 12 | 349 | 14.5 | 29.0 | 0.00 | 0.00 | 0.00 | 59 | 1010.0 |
| 20260506152800 | 12 | 355 | 16.1 | 29.0 | 0.00 | 0.00 | 0.00 | 60 | 1010.0 |
| 20260506151759 | 12 | 355 | 14.5 | 29.0 | 0.00 | 0.00 | 0.00 | 59 | 1010.0 |
| 20260506150758 | 12 | 354 | 14.5 | 29.0 | 0.00 | 0.00 | 0.00 | 58 | 1010.0 |
| 20260506145757 | 12 | 354 | 14.5 | 30.6 | 0.00 | 0.00 | 0.00 | 59 | 1010.0 |
| 20260506144757 | 12 | 354 | 14.5 | 30.6 | 0.00 | 0.00 | 0.00 | 59 | 1009.9 |
| 20260506143757 | 12 | 354 | 16.1 | 30.6 | 0.00 | 0.00 | 0.00 | 60 | 1009.9 |
| 20260506142756 | 12 | 354 | 16.1 | 30.6 | 0.00 | 0.00 | 0.00 | 60 | 1009.9 |
| 20260506141754 | 12 | 354 | 16.1 | 30.6 | 0.00 | 0.00 | 0.00 | 60 | 1009.9 |
| 20260506140754 | 12 | 354 | 16.1 | 32.2 | 0.00 | 0.00 | 0.00 | 60 | 1009.8 |
| 20260506135753 | 12 | 355 | 16.1 | 32.2 | 0.00 | 0.00 | 0.00 | 59 | 1009.8 |
| 20260506134752 | 12 | 355 | 16.1 | 32.2 | 0.00 | 0.00 | 0.00 | 59 | 1009.9 |
| 20260506132752 | 12 | 357 | 16.1 | 32.2 | 0.00 | 0.00 | 0.00 | 57 | 1009.8 |
| 20260506131751 | 12 | 357 | 16.1 | 32.2 | 0.00 | 0.00 | 0.00 | 59 | 1009.8 |
| 20260506130749 | 12 | 358 | 16.1 | 32.2 | 0.00 | 0.00 | 0.00 | 59 | 1009.7 |
| 20260506125749 | 12 | 360 | 16.1 | 30.6 | 0.00 | 0.00 | 0.00 | 55 | 1009.7 |
| 20260506124748 | 12 | 360 | 16.1 | 30.6 | 0.00 | 0.00 | 0.00 | 56 | 1009.7 |
| 20260506123747 | 13 | 1 | 16.1 | 30.6 | 0.00 | 0.00 | 0.00 | 55 | 1009.5 |
| 20260506122746 | 13 | 3 | 14.5 | 29.0 | 0.00 | 0.00 | 0.00 | 54 | 1009.6 |
| 20260506121745 | 13 | 3 | 17.7 | 29.0 | 0.00 | 0.00 | 0.00 | 55 | 1009.5 |
| 20260506120744 | 13 | 4 | 17.7 | 33.8 | 0.00 | 0.00 | 0.00 | 54 | 1009.4 |
| 20260506115743 | 14 | 8 | 17.7 | 33.8 | 0.00 | 0.00 | 0.00 | 56 | 1009.6 |
| 20260506114743 | 13 | 8 | 17.7 | 33.8 | 0.00 | 0.00 | 0.00 | 58 | 1009.6 |
| 20260506113743 | 15 | 10 | 17.7 | 33.8 | 0.00 | 0.00 | 0.00 | 58 | 1009.6 |
| 20260506112742 | 12 | 12 | 17.7 | 32.2 | 0.00 | 0.00 | 0.00 | 66 | 1009.6 |
| 20260506111742 | 11 | 12 | 17.7 | 32.2 | 0.00 | 0.00 | 0.00 | 69 | 1009.7 |
| 20260506110740 | 11 | 14 | 16.1 | 32.2 | 0.00 | 0.00 | 0.00 | 74 | 1009.7 |
| 20260506105740 | 12 | 6 | 17.7 | 33.8 | 0.00 | 0.00 | 0.00 | 74 | 1009.8 |
| 20260506104739 | 12 | 6 | 17.7 | 33.8 | 0.00 | 0.00 | 0.00 | 70 | 1009.8 |
| 20260506103739 | 11 | 9 | 17.7 | 32.2 | 0.00 | 0.00 | 0.00 | 67 | 1009.7 |
| 20260506102738 | 11 | 13 | 16.1 | 32.2 | 0.00 | 0.00 | 0.00 | 67 | 1009.7 |
| 20260506101737 | 11 | 13 | 16.1 | 32.2 | 0.00 | 0.00 | 0.00 | 64 | 1009.7 |
| 20260506100737 | 12 | 16 | 16.1 | 32.2 | 0.00 | 0.00 | 0.00 | 60 | 1009.5 |
| 20260506095736 | 13 | 11 | 16.1 | 30.6 | 0.00 | 0.00 | 0.00 | 61 | 1009.6 |
| 20260506094735 | 13 | 11 | 16.1 | 30.6 | 0.00 | 0.00 | 0.00 | 61 | 1009.5 |
| 20260506093734 | 11 | 354 | 16.1 | 32.2 | 0.00 | 0.00 | 0.00 | 66 | 1009.6 |